Copperas Cove, TX

7:50 PM CDT on August 29, 2014 (GMT -0500)
SC Lee JHS | Change Station
CLOSE
Current Station
Personal Weather Station
Location: Copperas Cove, TX
Elevation: 1000 ft
Nearby Weather Stations

Elev 1000 ft 31.15 °N, 97.91 °W | Updated 36 seconds ago

Mostly Cloudy
Mostly Cloudy
83.6 °F
Feels Like 81 °F
N
6.0
Wind Variable Wind from SSE

Today
High -- | Low -- °F
--% Chance of Precip.
Yesterday
High -- | Low -- °F
Precip. -- in
7:06 AM 7:58 PM
Waxing Crescent, 17% visible
Pressure 29.82 in
Visibility 7.0 miles
Clouds Few 6000 ft
Mostly Cloudy 25000 ft
Heat Index 81 °F
Dew Point 45 °F
Humidity 26%
Rainfall 0.00 in
Snow Depth Not available.
UV 0 out of 12
Pollen 8.70 out of 12
Ozone Good
PM2.5 Good
Flu Activity Not available.
METAR KGRK 292355Z 12015KT 7SM FEW060 BKN250 30/20 A2983 RMK SLP098 58002

More Conditions Fewer Conditions

Pressure 29.82 in
Visibility 7.0 miles
Clouds Few 6000 ft
Mostly Cloudy 25000 ft
Heat Index 81 °F
Dew Point 45 °F
Humidity 26%
Rainfall 0.00 in
Snow Depth Not available.
UV 0 out of 12
Pollen 8.70 out of 12
Ozone Good
PM2.5 Good
Flu Activity Not available.
METAR KGRK 292355Z 12015KT 7SM FEW060 BKN250 30/20 A2983 RMK SLP098 58002

More Conditions Fewer Conditions

Nowcast | as of 7:48 PM CDT on August 29, 2014

An area of scattered thunderstorms between Hillsboro and Goldthwaite were slowly drifting southward around 5 mph. These storms will produce locally heavy rain and frequent lightning. Elsewhere...isolated showers and thunderstorms are possible this evening...generally along and south of the Interstate 20 corridor. This activity should diminish in coverage and intensity after sunset. Widespread severe weather is not expected.

×

10-Day Weather Forecast

Almanac

Astronomy

Aug. 29, 2014 Rise Set
Actual Time 7:06 AM CDT 7:58 PM CDT
Civil Twilight 6:41 AM CDT 8:23 PM CDT
Nautical Twilight 6:11 AM CDT 8:52 PM CDT
Astronomical Twilight 5:41 AM CDT 9:22 PM CDT
Moon 10:39 AM CDT (8/29) 10:16 PM CDT (8/29)
Length of Visible Light 13h 42m
Length of Day
12h 52m
Tomorrow will be 1m 47s shorter.
Waxing Crescent, 17% of the Moon is Illuminated
Today
Waxing Crescent
Sep 2
First Quarter
Sep 8
Full
Sep 15
Last Quarter
Sep 24
New

Today's Extremes

State Highs State Lows

Community

WunderPhotos

Upload Photos

1,748,390 photos uploaded!

Nearby

Air Quality

  Air Quality AQ Index Pollutant
Yesterday Good
OZONE
Yesterday Good
PM2.5
Current Good
OZONE
Current Good
PM2.5
Friday Good
PM10
Friday Good
OZONE
Saturday Good
PM10
Saturday Good
OZONE
Sunday Good
PM10
Sunday Good
OZONE
Monday Good
PM10
Monday Good
OZONE
Tuesday Good
PM10
Tuesday Good
OZONE

Snow Depth

Station Depth Elevation
No new snow has been reported.

Earthquake Activity

City Distance Mag. Time & Date
No recent earthquake activity has been reported nearby.
Minimum magnitude displayed is 2.5.

Coastal Water Temperatures

Place Temperature
No Stations Reporting

Nearby Weather Stations